sensor_id;sensor_type;location;lat;lon;timestamp;P1;durP1;ratioP1;P2;durP2;ratioP2
13014;SDS011;6573;57.696;11.950;2024-02-21T00:00:52;46.80;;;10.47;;
13014;SDS011;6573;57.696;11.950;2024-02-21T00:03:21;55.53;;;10.67;;
13014;SDS011;6573;57.696;11.950;2024-02-21T00:05:49;52.87;;;10.53;;
13014;SDS011;6573;57.696;11.950;2024-02-21T00:08:18;46.63;;;9.63;;
13014;SDS011;6573;57.696;11.950;2024-02-21T00:10:46;47.83;;;9.83;;
13014;SDS011;6573;57.696;11.950;2024-02-21T00:13:17;46.37;;;9.20;;
13014;SDS011;6573;57.696;11.950;2024-02-21T00:15:46;49.77;;;10.27;;
13014;SDS011;6573;57.696;11.950;2024-02-21T00:18:14;48.20;;;9.70;;
13014;SDS011;6573;57.696;11.950;2024-02-21T00:20:43;55.37;;;10.47;;
13014;SDS011;6573;57.696;11.950;2024-02-21T00:23:11;51.73;;;10.20;;
13014;SDS011;6573;57.696;11.950;2024-02-21T00:25:40;53.87;;;10.53;;
13014;SDS011;6573;57.696;11.950;2024-02-21T00:28:08;51.73;;;11.20;;
13014;SDS011;6573;57.696;11.950;2024-02-21T00:30:39;54.13;;;10.43;;
13014;SDS011;6573;57.696;11.950;2024-02-21T00:33:07;51.30;;;10.23;;
13014;SDS011;6573;57.696;11.950;2024-02-21T00:35:36;43.30;;;9.83;;
13014;SDS011;6573;57.696;11.950;2024-02-21T00:38:04;49.90;;;10.20;;
13014;SDS011;6573;57.696;11.950;2024-02-21T00:40:33;43.93;;;9.93;;
13014;SDS011;6573;57.696;11.950;2024-02-21T00:43:03;44.30;;;9.03;;
13014;SDS011;6573;57.696;11.950;2024-02-21T00:45:31;45.07;;;9.47;;
13014;SDS011;6573;57.696;11.950;2024-02-21T00:48:02;48.23;;;9.80;;
13014;SDS011;6573;57.696;11.950;2024-02-21T00:50:30;46.60;;;10.03;;
13014;SDS011;6573;57.696;11.950;2024-02-21T00:52:59;39.00;;;9.07;;
13014;SDS011;6573;57.696;11.950;2024-02-21T00:55:28;41.93;;;9.60;;
13014;SDS011;6573;57.696;11.950;2024-02-21T00:57:56;35.37;;;8.60;;
13014;SDS011;6573;57.696;11.950;2024-02-21T01:00:24;37.53;;;9.13;;
13014;SDS011;6573;57.696;11.950;2024-02-21T01:02:53;40.67;;;9.90;;
13014;SDS011;6573;57.696;11.950;2024-02-21T01:05:23;51.13;;;10.50;;
13014;SDS011;6573;57.696;11.950;2024-02-21T01:07:52;44.03;;;9.83;;
13014;SDS011;6573;57.696;11.950;2024-02-21T01:10:20;41.20;;;9.77;;
13014;SDS011;6573;57.696;11.950;2024-02-21T01:12:49;45.23;;;9.87;;
13014;SDS011;6573;57.696;11.950;2024-02-21T01:15:18;56.77;;;10.40;;
13014;SDS011;6573;57.696;11.950;2024-02-21T01:17:46;40.40;;;10.20;;
13014;SDS011;6573;57.696;11.950;2024-02-21T01:20:16;44.13;;;10.37;;
13014;SDS011;6573;57.696;11.950;2024-02-21T01:22:46;41.60;;;9.00;;
13014;SDS011;6573;57.696;11.950;2024-02-21T01:25:15;31.67;;;8.63;;
13014;SDS011;6573;57.696;11.950;2024-02-21T01:27:44;40.73;;;8.67;;
13014;SDS011;6573;57.696;11.950;2024-02-21T01:30:12;28.77;;;8.50;;
13014;SDS011;6573;57.696;11.950;2024-02-21T01:32:41;30.03;;;7.80;;
13014;SDS011;6573;57.696;11.950;2024-02-21T01:35:09;25.40;;;7.60;;
13014;SDS011;6573;57.696;11.950;2024-02-21T01:37:38;28.87;;;7.63;;
13014;SDS011;6573;57.696;11.950;2024-02-21T01:40:09;23.87;;;7.10;;
13014;SDS011;6573;57.696;11.950;2024-02-21T01:42:38;25.43;;;7.50;;
13014;SDS011;6573;57.696;11.950;2024-02-21T01:45:08;29.40;;;7.70;;
13014;SDS011;6573;57.696;11.950;2024-02-21T01:47:41;24.40;;;6.73;;
13014;SDS011;6573;57.696;11.950;2024-02-21T01:50:09;27.67;;;6.77;;
13014;SDS011;6573;57.696;11.950;2024-02-21T01:52:39;24.47;;;7.23;;
13014;SDS011;6573;57.696;11.950;2024-02-21T01:55:11;24.70;;;7.37;;
13014;SDS011;6573;57.696;11.950;2024-02-21T01:57:41;30.07;;;7.67;;
13014;SDS011;6573;57.696;11.950;2024-02-21T02:00:13;25.37;;;7.50;;
13014;SDS011;6573;57.696;11.950;2024-02-21T02:02:42;26.77;;;7.27;;
13014;SDS011;6573;57.696;11.950;2024-02-21T02:05:12;27.33;;;7.83;;
13014;SDS011;6573;57.696;11.950;2024-02-21T02:07:41;28.33;;;7.43;;
13014;SDS011;6573;57.696;11.950;2024-02-21T02:10:09;27.93;;;7.77;;
13014;SDS011;6573;57.696;11.950;2024-02-21T02:12:39;19.47;;;6.53;;
13014;SDS011;6573;57.696;11.950;2024-02-21T02:15:08;21.67;;;7.33;;
13014;SDS011;6573;57.696;11.950;2024-02-21T02:17:36;21.10;;;7.07;;
13014;SDS011;6573;57.696;11.950;2024-02-21T02:20:06;23.10;;;7.23;;
13014;SDS011;6573;57.696;11.950;2024-02-21T02:22:35;21.83;;;7.70;;
13014;SDS011;6573;57.696;11.950;2024-02-21T02:25:09;23.37;;;8.00;;
13014;SDS011;6573;57.696;11.950;2024-02-21T02:27:44;27.40;;;8.77;;
13014;SDS011;6573;57.696;11.950;2024-02-21T02:30:13;27.67;;;8.80;;
13014;SDS011;6573;57.696;11.950;2024-02-21T02:32:44;23.10;;;9.03;;
13014;SDS011;6573;57.696;11.950;2024-02-21T02:35:13;27.53;;;9.23;;
13014;SDS011;6573;57.696;11.950;2024-02-21T02:37:47;24.00;;;8.63;;
13014;SDS011;6573;57.696;11.950;2024-02-21T02:40:18;17.67;;;7.73;;
13014;SDS011;6573;57.696;11.950;2024-02-21T02:42:46;18.87;;;8.43;;
13014;SDS011;6573;57.696;11.950;2024-02-21T02:45:15;20.87;;;8.73;;
13014;SDS011;6573;57.696;11.950;2024-02-21T02:47:44;29.83;;;10.27;;
13014;SDS011;6573;57.696;11.950;2024-02-21T02:50:13;28.17;;;10.97;;
13014;SDS011;6573;57.696;11.950;2024-02-21T02:52:42;33.00;;;11.20;;
13014;SDS011;6573;57.696;11.950;2024-02-21T02:55:10;31.53;;;11.03;;
13014;SDS011;6573;57.696;11.950;2024-02-21T02:57:41;23.00;;;8.50;;
13014;SDS011;6573;57.696;11.950;2024-02-21T03:00:10;24.23;;;9.20;;
13014;SDS011;6573;57.696;11.950;2024-02-21T03:02:40;18.73;;;7.83;;
13014;SDS011;6573;57.696;11.950;2024-02-21T03:05:12;16.77;;;7.53;;
13014;SDS011;6573;57.696;11.950;2024-02-21T03:07:42;21.47;;;8.30;;
13014;SDS011;6573;57.696;11.950;2024-02-21T03:10:12;17.53;;;8.17;;
13014;SDS011;6573;57.696;11.950;2024-02-21T03:12:45;16.23;;;7.37;;
13014;SDS011;6573;57.696;11.950;2024-02-21T03:15:14;13.63;;;6.50;;
13014;SDS011;6573;57.696;11.950;2024-02-21T03:17:42;13.40;;;6.57;;
13014;SDS011;6573;57.696;11.950;2024-02-21T03:20:11;17.33;;;6.67;;
13014;SDS011;6573;57.696;11.950;2024-02-21T03:22:40;13.63;;;6.30;;
13014;SDS011;6573;57.696;11.950;2024-02-21T03:25:09;10.03;;;4.80;;
13014;SDS011;6573;57.696;11.950;2024-02-21T03:27:40;13.07;;;5.33;;
13014;SDS011;6573;57.696;11.950;2024-02-21T03:30:10;8.60;;;4.30;;
13014;SDS011;6573;57.696;11.950;2024-02-21T03:32:40;10.37;;;4.13;;
13014;SDS011;6573;57.696;11.950;2024-02-21T03:35:08;8.73;;;3.50;;
13014;SDS011;6573;57.696;11.950;2024-02-21T03:37:37;6.73;;;3.23;;
13014;SDS011;6573;57.696;11.950;2024-02-21T03:40:07;5.93;;;3.10;;
13014;SDS011;6573;57.696;11.950;2024-02-21T03:42:40;7.73;;;2.87;;
13014;SDS011;6573;57.696;11.950;2024-02-21T03:45:10;6.47;;;2.50;;
13014;SDS011;6573;57.696;11.950;2024-02-21T03:47:39;5.80;;;2.40;;
13014;SDS011;6573;57.696;11.950;2024-02-21T03:50:07;4.37;;;2.10;;
13014;SDS011;6573;57.696;11.950;2024-02-21T03:52:36;5.60;;;2.00;;
13014;SDS011;6573;57.696;11.950;2024-02-21T03:55:05;4.10;;;2.03;;
13014;SDS011;6573;57.696;11.950;2024-02-21T03:57:36;4.77;;;2.20;;
13014;SDS011;6573;57.696;11.950;2024-02-21T04:00:05;3.50;;;1.93;;
13014;SDS011;6573;57.696;11.950;2024-02-21T04:02:39;3.97;;;1.50;;
13014;SDS011;6573;57.696;11.950;2024-02-21T04:05:08;2.60;;;1.53;;
13014;SDS011;6573;57.696;11.950;2024-02-21T04:07:38;2.40;;;1.60;;
13014;SDS011;6573;57.696;11.950;2024-02-21T04:10:07;2.23;;;1.50;;
13014;SDS011;6573;57.696;11.950;2024-02-21T04:12:37;2.20;;;1.70;;
13014;SDS011;6573;57.696;11.950;2024-02-21T04:15:06;2.87;;;2.00;;
13014;SDS011;6573;57.696;11.950;2024-02-21T04:17:36;2.90;;;1.97;;
13014;SDS011;6573;57.696;11.950;2024-02-21T04:20:13;4.60;;;2.40;;
13014;SDS011;6573;57.696;11.950;2024-02-21T04:22:42;4.80;;;2.50;;
13014;SDS011;6573;57.696;11.950;2024-02-21T04:25:12;4.03;;;2.40;;
13014;SDS011;6573;57.696;11.950;2024-02-21T04:27:41;3.40;;;2.23;;
13014;SDS011;6573;57.696;11.950;2024-02-21T04:30:10;3.20;;;2.50;;
13014;SDS011;6573;57.696;11.950;2024-02-21T04:32:38;4.20;;;3.13;;
13014;SDS011;6573;57.696;11.950;2024-02-21T04:35:09;3.00;;;2.70;;
13014;SDS011;6573;57.696;11.950;2024-02-21T04:37:37;3.57;;;2.70;;
13014;SDS011;6573;57.696;11.950;2024-02-21T04:40:06;3.73;;;2.57;;
13014;SDS011;6573;57.696;11.950;2024-02-21T04:42:36;4.67;;;2.90;;
13014;SDS011;6573;57.696;11.950;2024-02-21T04:45:10;5.40;;;3.30;;
13014;SDS011;6573;57.696;11.950;2024-02-21T04:47:39;6.30;;;3.50;;
13014;SDS011;6573;57.696;11.950;2024-02-21T04:50:10;6.70;;;3.33;;
13014;SDS011;6573;57.696;11.950;2024-02-21T04:52:39;6.00;;;3.67;;
13014;SDS011;6573;57.696;11.950;2024-02-21T04:55:08;7.23;;;4.60;;
13014;SDS011;6573;57.696;11.950;2024-02-21T04:57:38;7.30;;;4.30;;
13014;SDS011;6573;57.696;11.950;2024-02-21T05:00:07;8.13;;;5.07;;
13014;SDS011;6573;57.696;11.950;2024-02-21T05:02:36;6.90;;;4.47;;
13014;SDS011;6573;57.696;11.950;2024-02-21T05:05:05;8.03;;;4.33;;
13014;SDS011;6573;57.696;11.950;2024-02-21T05:07:36;6.70;;;3.83;;
13014;SDS011;6573;57.696;11.950;2024-02-21T05:10:06;8.87;;;3.87;;
13014;SDS011;6573;57.696;11.950;2024-02-21T05:12:36;6.60;;;3.53;;
13014;SDS011;6573;57.696;11.950;2024-02-21T05:15:05;8.50;;;3.80;;
13014;SDS011;6573;57.696;11.950;2024-02-21T05:17:35;7.70;;;3.87;;
13014;SDS011;6573;57.696;11.950;2024-02-21T05:20:17;8.57;;;3.70;;
13014;SDS011;6573;57.696;11.950;2024-02-21T05:22:47;8.20;;;3.30;;
13014;SDS011;6573;57.696;11.950;2024-02-21T05:25:16;10.03;;;3.80;;
13014;SDS011;6573;57.696;11.950;2024-02-21T05:27:45;7.57;;;3.30;;
13014;SDS011;6573;57.696;11.950;2024-02-21T05:30:14;8.77;;;2.83;;
13014;SDS011;6573;57.696;11.950;2024-02-21T05:32:43;8.80;;;2.90;;
13014;SDS011;6573;57.696;11.950;2024-02-21T05:35:12;7.63;;;2.60;;
13014;SDS011;6573;57.696;11.950;2024-02-21T05:37:40;11.37;;;3.30;;
13014;SDS011;6573;57.696;11.950;2024-02-21T05:43:38;11.13;;;2.80;;
13014;SDS011;6573;57.696;11.950;2024-02-21T05:46:06;9.87;;;2.43;;
13014;SDS011;6573;57.696;11.950;2024-02-21T05:48:52;6.03;;;1.87;;
13014;SDS011;6573;57.696;11.950;2024-02-21T05:51:38;8.73;;;2.10;;
13014;SDS011;6573;57.696;11.950;2024-02-21T05:54:40;9.80;;;2.30;;
13014;SDS011;6573;57.696;11.950;2024-02-21T05:57:16;9.23;;;2.20;;
13014;SDS011;6573;57.696;11.950;2024-02-21T05:59:48;9.27;;;2.50;;
13014;SDS011;6573;57.696;11.950;2024-02-21T06:02:24;6.50;;;2.30;;
13014;SDS011;6573;57.696;11.950;2024-02-21T06:04:53;8.43;;;2.33;;
13014;SDS011;6573;57.696;11.950;2024-02-21T06:07:22;10.00;;;2.13;;
13014;SDS011;6573;57.696;11.950;2024-02-21T06:09:52;8.37;;;2.07;;
13014;SDS011;6573;57.696;11.950;2024-02-21T06:12:53;10.37;;;2.67;;
13014;SDS011;6573;57.696;11.950;2024-02-21T06:16:37;11.90;;;2.80;;
13014;SDS011;6573;57.696;11.950;2024-02-21T06:22:58;12.50;;;3.57;;
13014;SDS011;6573;57.696;11.950;2024-02-21T06:25:29;8.03;;;2.77;;
13014;SDS011;6573;57.696;11.950;2024-02-21T06:28:00;12.13;;;3.10;;
13014;SDS011;6573;57.696;11.950;2024-02-21T06:30:31;10.63;;;3.00;;
13014;SDS011;6573;57.696;11.950;2024-02-21T06:33:00;9.93;;;3.00;;
13014;SDS011;6573;57.696;11.950;2024-02-21T06:35:32;9.07;;;2.70;;
13014;SDS011;6573;57.696;11.950;2024-02-21T06:38:07;9.90;;;3.20;;
13014;SDS011;6573;57.696;11.950;2024-02-21T06:40:50;7.87;;;2.63;;
13014;SDS011;6573;57.696;11.950;2024-02-21T06:43:23;6.77;;;2.43;;
13014;SDS011;6573;57.696;11.950;2024-02-21T06:45:53;5.80;;;1.80;;
13014;SDS011;6573;57.696;11.950;2024-02-21T06:48:27;6.73;;;2.10;;
13014;SDS011;6573;57.696;11.950;2024-02-21T06:51:03;6.40;;;1.60;;
13014;SDS011;6573;57.696;11.950;2024-02-21T06:54:07;5.30;;;1.63;;
13014;SDS011;6573;57.696;11.950;2024-02-21T07:03:46;5.73;;;1.47;;
13014;SDS011;6573;57.696;11.950;2024-02-21T07:06:30;5.67;;;1.80;;
13014;SDS011;6573;57.696;11.950;2024-02-21T07:09:04;9.33;;;1.77;;
13014;SDS011;6573;57.696;11.950;2024-02-21T07:12:19;4.03;;;1.30;;
13014;SDS011;6573;57.696;11.950;2024-02-21T07:18:23;2.47;;;1.33;;
13014;SDS011;6573;57.696;11.950;2024-02-21T07:21:30;4.23;;;1.40;;
13014;SDS011;6573;57.696;11.950;2024-02-21T07:24:50;3.47;;;1.40;;
13014;SDS011;6573;57.696;11.950;2024-02-21T07:36:23;3.27;;;1.27;;
13014;SDS011;6573;57.696;11.950;2024-02-21T07:43:49;3.30;;;1.30;;
13014;SDS011;6573;57.696;11.950;2024-02-21T07:46:26;2.90;;;1.80;;
13014;SDS011;6573;57.696;11.950;2024-02-21T07:49:04;2.07;;;1.50;;
13014;SDS011;6573;57.696;11.950;2024-02-21T07:52:09;2.20;;;1.70;;
13014;SDS011;6573;57.696;11.950;2024-02-21T07:54:48;3.23;;;2.00;;
13014;SDS011;6573;57.696;11.950;2024-02-21T07:57:19;6.70;;;2.70;;
13014;SDS011;6573;57.696;11.950;2024-02-21T07:59:48;5.87;;;2.87;;
13014;SDS011;6573;57.696;11.950;2024-02-21T08:02:18;6.57;;;2.27;;
13014;SDS011;6573;57.696;11.950;2024-02-21T08:04:50;4.47;;;2.40;;
13014;SDS011;6573;57.696;11.950;2024-02-21T08:36:49;5.63;;;3.00;;
13014;SDS011;6573;57.696;11.950;2024-02-21T08:39:19;3.53;;;2.30;;
13014;SDS011;6573;57.696;11.950;2024-02-21T08:41:48;4.57;;;2.00;;
13014;SDS011;6573;57.696;11.950;2024-02-21T08:44:23;3.77;;;2.40;;
13014;SDS011;6573;57.696;11.950;2024-02-21T08:46:56;4.17;;;2.13;;
13014;SDS011;6573;57.696;11.950;2024-02-21T08:49:25;3.90;;;1.80;;
13014;SDS011;6573;57.696;11.950;2024-02-21T08:52:02;2.40;;;1.40;;
13014;SDS011;6573;57.696;11.950;2024-02-21T08:54:32;3.17;;;1.50;;
13014;SDS011;6573;57.696;11.950;2024-02-21T08:57:02;3.33;;;1.30;;
13014;SDS011;6573;57.696;11.950;2024-02-21T08:59:32;2.30;;;1.17;;
13014;SDS011;6573;57.696;11.950;2024-02-21T09:02:01;2.17;;;1.13;;
13014;SDS011;6573;57.696;11.950;2024-02-21T09:04:31;2.17;;;0.90;;
13014;SDS011;6573;57.696;11.950;2024-02-21T09:07:05;1.07;;;0.60;;
13014;SDS011;6573;57.696;11.950;2024-02-21T09:09:35;1.20;;;0.90;;
13014;SDS011;6573;57.696;11.950;2024-02-21T09:12:06;0.80;;;0.67;;
13014;SDS011;6573;57.696;11.950;2024-02-21T09:14:37;1.53;;;0.70;;
13014;SDS011;6573;57.696;11.950;2024-02-21T09:17:07;1.37;;;0.70;;
13014;SDS011;6573;57.696;11.950;2024-02-21T09:19:38;5.23;;;1.20;;
13014;SDS011;6573;57.696;11.950;2024-02-21T09:22:10;1.90;;;1.70;;
13014;SDS011;6573;57.696;11.950;2024-02-21T09:24:40;5.00;;;2.50;;
13014;SDS011;6573;57.696;11.950;2024-02-21T09:27:12;6.53;;;4.70;;
13014;SDS011;6573;57.696;11.950;2024-02-21T09:29:42;57.17;;;4.43;;
13014;SDS011;6573;57.696;11.950;2024-02-21T09:32:11;66.80;;;4.70;;
13014;SDS011;6573;57.696;11.950;2024-02-21T09:34:40;57.47;;;4.20;;
13014;SDS011;6573;57.696;11.950;2024-02-21T09:37:12;18.40;;;3.87;;
13014;SDS011;6573;57.696;11.950;2024-02-21T09:39:45;11.90;;;4.50;;
13014;SDS011;6573;57.696;11.950;2024-02-21T09:42:14;17.03;;;3.70;;
13014;SDS011;6573;57.696;11.950;2024-02-21T09:44:50;10.30;;;3.43;;
13014;SDS011;6573;57.696;11.950;2024-02-21T09:47:24;9.83;;;3.30;;
13014;SDS011;6573;57.696;11.950;2024-02-21T09:50:16;11.10;;;2.80;;
13014;SDS011;6573;57.696;11.950;2024-02-21T09:52:50;4.87;;;2.83;;
13014;SDS011;6573;57.696;11.950;2024-02-21T09:55:21;6.13;;;2.70;;
13014;SDS011;6573;57.696;11.950;2024-02-21T09:57:50;3.47;;;2.70;;
13014;SDS011;6573;57.696;11.950;2024-02-21T10:00:21;5.47;;;2.90;;
13014;SDS011;6573;57.696;11.950;2024-02-21T10:02:54;12.23;;;3.50;;
13014;SDS011;6573;57.696;11.950;2024-02-21T10:05:28;7.77;;;3.60;;
13014;SDS011;6573;57.696;11.950;2024-02-21T10:08:02;13.77;;;3.13;;
13014;SDS011;6573;57.696;11.950;2024-02-21T10:10:40;11.20;;;3.67;;
13014;SDS011;6573;57.696;11.950;2024-02-21T10:13:23;15.70;;;4.67;;
13014;SDS011;6573;57.696;11.950;2024-02-21T10:18:41;12.27;;;3.70;;
13014;SDS011;6573;57.696;11.950;2024-02-21T10:21:10;13.70;;;3.73;;
13014;SDS011;6573;57.696;11.950;2024-02-21T10:23:43;5.83;;;3.77;;
13014;SDS011;6573;57.696;11.950;2024-02-21T10:26:16;4.30;;;2.50;;
13014;SDS011;6573;57.696;11.950;2024-02-21T10:28:47;3.37;;;2.50;;
13014;SDS011;6573;57.696;11.950;2024-02-21T10:31:23;2.93;;;1.90;;
13014;SDS011;6573;57.696;11.950;2024-02-21T10:33:55;2.87;;;1.57;;
13014;SDS011;6573;57.696;11.950;2024-02-21T10:36:30;2.57;;;1.80;;
13014;SDS011;6573;57.696;11.950;2024-02-21T10:39:08;2.17;;;1.60;;
13014;SDS011;6573;57.696;11.950;2024-02-21T10:41:39;2.00;;;1.20;;
13014;SDS011;6573;57.696;11.950;2024-02-21T10:44:11;2.97;;;1.57;;
13014;SDS011;6573;57.696;11.950;2024-02-21T10:46:46;4.93;;;1.97;;
13014;SDS011;6573;57.696;11.950;2024-02-21T10:49:19;3.33;;;2.10;;
13014;SDS011;6573;57.696;11.950;2024-02-21T10:51:54;4.57;;;2.90;;
13014;SDS011;6573;57.696;11.950;2024-02-21T10:54:43;5.97;;;2.17;;
13014;SDS011;6573;57.696;11.950;2024-02-21T10:57:20;9.80;;;2.80;;
13014;SDS011;6573;57.696;11.950;2024-02-21T10:59:52;28.30;;;4.03;;
13014;SDS011;6573;57.696;11.950;2024-02-21T11:02:31;8.73;;;4.17;;
13014;SDS011;6573;57.696;11.950;2024-02-21T11:05:21;10.87;;;4.27;;
13014;SDS011;6573;57.696;11.950;2024-02-21T11:07:54;7.67;;;5.03;;
13014;SDS011;6573;57.696;11.950;2024-02-21T11:10:28;8.37;;;4.23;;
13014;SDS011;6573;57.696;11.950;2024-02-21T11:13:05;6.33;;;3.80;;
13014;SDS011;6573;57.696;11.950;2024-02-21T11:15:36;7.83;;;3.70;;
13014;SDS011;6573;57.696;11.950;2024-02-21T11:18:07;4.53;;;3.30;;
13014;SDS011;6573;57.696;11.950;2024-02-21T11:20:37;7.67;;;3.70;;
13014;SDS011;6573;57.696;11.950;2024-02-21T11:23:09;8.80;;;4.33;;
13014;SDS011;6573;57.696;11.950;2024-02-21T11:25:41;10.43;;;4.03;;
13014;SDS011;6573;57.696;11.950;2024-02-21T11:28:12;7.57;;;4.17;;
13014;SDS011;6573;57.696;11.950;2024-02-21T11:30:42;8.57;;;4.67;;
13014;SDS011;6573;57.696;11.950;2024-02-21T11:33:10;10.43;;;4.73;;
13014;SDS011;6573;57.696;11.950;2024-02-21T11:35:40;12.37;;;5.63;;
13014;SDS011;6573;57.696;11.950;2024-02-21T11:38:10;11.53;;;5.10;;
13014;SDS011;6573;57.696;11.950;2024-02-21T11:40:45;11.37;;;6.00;;
13014;SDS011;6573;57.696;11.950;2024-02-21T11:43:16;12.03;;;6.33;;
13014;SDS011;6573;57.696;11.950;2024-02-21T11:45:45;9.57;;;5.57;;
13014;SDS011;6573;57.696;11.950;2024-02-21T11:48:15;10.97;;;6.70;;
13014;SDS011;6573;57.696;11.950;2024-02-21T11:50:52;10.57;;;5.80;;
13014;SDS011;6573;57.696;11.950;2024-02-21T11:53:22;9.57;;;5.60;;
13014;SDS011;6573;57.696;11.950;2024-02-21T11:55:52;10.03;;;6.00;;
13014;SDS011;6573;57.696;11.950;2024-02-21T11:58:22;9.93;;;5.60;;
13014;SDS011;6573;57.696;11.950;2024-02-21T12:00:53;9.10;;;5.20;;
13014;SDS011;6573;57.696;11.950;2024-02-21T12:03:23;10.03;;;5.97;;
13014;SDS011;6573;57.696;11.950;2024-02-21T12:05:53;9.70;;;6.20;;
13014;SDS011;6573;57.696;11.950;2024-02-21T12:08:24;12.07;;;7.00;;
13014;SDS011;6573;57.696;11.950;2024-02-21T12:10:55;9.17;;;5.73;;
13014;SDS011;6573;57.696;11.950;2024-02-21T12:13:24;11.90;;;6.07;;
13014;SDS011;6573;57.696;11.950;2024-02-21T12:15:55;13.30;;;5.90;;
13014;SDS011;6573;57.696;11.950;2024-02-21T12:18:23;11.57;;;6.67;;
13014;SDS011;6573;57.696;11.950;2024-02-21T12:20:54;9.40;;;6.07;;
13014;SDS011;6573;57.696;11.950;2024-02-21T12:23:23;9.10;;;5.90;;
13014;SDS011;6573;57.696;11.950;2024-02-21T12:26:00;9.30;;;6.40;;
13014;SDS011;6573;57.696;11.950;2024-02-21T12:28:34;10.40;;;5.93;;
13014;SDS011;6573;57.696;11.950;2024-02-21T12:31:03;10.57;;;6.00;;
13014;SDS011;6573;57.696;11.950;2024-02-21T12:33:35;10.87;;;5.87;;
13014;SDS011;6573;57.696;11.950;2024-02-21T12:36:06;7.97;;;5.27;;
13014;SDS011;6573;57.696;11.950;2024-02-21T12:38:37;10.53;;;5.80;;
13014;SDS011;6573;57.696;11.950;2024-02-21T12:41:11;8.53;;;5.67;;
13014;SDS011;6573;57.696;11.950;2024-02-21T12:43:43;7.97;;;5.20;;
13014;SDS011;6573;57.696;11.950;2024-02-21T12:46:13;10.73;;;5.67;;
13014;SDS011;6573;57.696;11.950;2024-02-21T12:48:51;7.50;;;5.40;;
13014;SDS011;6573;57.696;11.950;2024-02-21T12:51:24;7.80;;;4.90;;
13014;SDS011;6573;57.696;11.950;2024-02-21T12:53:55;7.83;;;4.77;;
13014;SDS011;6573;57.696;11.950;2024-02-21T12:56:28;9.13;;;5.50;;
13014;SDS011;6573;57.696;11.950;2024-02-21T12:58:59;7.10;;;4.80;;
13014;SDS011;6573;57.696;11.950;2024-02-21T13:01:29;9.00;;;4.83;;
13014;SDS011;6573;57.696;11.950;2024-02-21T13:03:59;10.30;;;6.03;;
13014;SDS011;6573;57.696;11.950;2024-02-21T13:06:29;9.10;;;5.10;;
13014;SDS011;6573;57.696;11.950;2024-02-21T13:08:58;9.43;;;5.70;;
13014;SDS011;6573;57.696;11.950;2024-02-21T13:11:33;7.50;;;4.93;;
13014;SDS011;6573;57.696;11.950;2024-02-21T13:14:04;5.57;;;3.90;;
13014;SDS011;6573;57.696;11.950;2024-02-21T13:16:33;6.10;;;4.37;;
13014;SDS011;6573;57.696;11.950;2024-02-21T13:19:06;8.47;;;4.63;;
13014;SDS011;6573;57.696;11.950;2024-02-21T13:21:36;7.27;;;3.83;;
13014;SDS011;6573;57.696;11.950;2024-02-21T13:24:10;6.67;;;3.20;;
13014;SDS011;6573;57.696;11.950;2024-02-21T13:26:41;6.87;;;3.70;;
